TFM - Tactical Decision Aid (Experimental) INFO Settings
ID: Runway Winds: CIG/VIS Threshold: METAR Board: Map:

KCLT - Charlotte-Douglas Intl

Updated at: 1432 UTC 10 Dec 2016
Latest TAF at: 1126 UTC 10 Dec 2016

TAF Board

Time1352Z10/15Z10/16Z10/17Z10/18Z10/19Z10/20Z10/21Z10/22Z10/23Z11/00Z11/01Z11/02Z11/03Z
TypeOBSPRVLPRVLPRVLPRVLPRVLPRVLPRVLPRVLPRVLPRVLPRVLPRVLPRVL
VIS10>6>6>6>6>6>6>6>6>6>6>6>6>6
CIG----------------------------
CoverCLRSKCSKCSKCSKCSKCSCTSCTSCTSCTSCTSCTSCTSCT
FltCatVFRVFRVFRVFRVFRVFRVFRVFRVFRVFRVFRVFRVFRVFR
WX----------------------------
WDir902020202020240240240240140140140140
WSpd53333333333333
WGst----------------------------
TAF
KCLT 101126Z 1012/1112 02003KT P6SM SKC
  FM102000 24003KT P6SM SCT200
  FM110000 14003KT P6SM SCT200


METAR
KCLT 101352Z 09005KT 10SM CLR M01/M09 A3055 RMK AO2 SLP349 T10111089

TAF/METAR Board Legend

Potential Impact
  None Marginal Slight Moderate High
Visibility (sm) >5 3≤X≤5 1≤X<3 0.5≤X<1 <0.5
Ceiling (100 ft) >30 10≤X≤30 4≤X<10 2≤X<4 <2
Wind Speed (kt) <10 10≤X<20 20≤X<30 ≥30
Wind Gust (kt) <15 15≤X<25 25≤X<35 ≥35
Weather No Wx Reported VCTS -TS,-FZRA TS,FZRA +TS,+FZRA